sensor_id;sensor_type;location;lat;lon;timestamp;P1;durP1;ratioP1;P2;durP2;ratioP2
26690;SDS011;14307;51.718;8.938;2023-04-01T00:02:05;6.18;;;5.40;;
26690;SDS011;14307;51.718;8.938;2023-04-01T00:04:32;5.30;;;4.85;;
26690;SDS011;14307;51.718;8.938;2023-04-01T00:06:59;5.43;;;5.13;;
26690;SDS011;14307;51.718;8.938;2023-04-01T00:09:26;5.60;;;5.20;;
26690;SDS011;14307;51.718;8.938;2023-04-01T00:11:55;6.75;;;6.20;;
26690;SDS011;14307;51.718;8.938;2023-04-01T00:14:22;5.95;;;5.55;;
26690;SDS011;14307;51.718;8.938;2023-04-01T00:16:48;6.40;;;6.00;;
26690;SDS011;14307;51.718;8.938;2023-04-01T00:19:15;5.80;;;5.40;;
26690;SDS011;14307;51.718;8.938;2023-04-01T00:21:42;5.57;;;5.32;;
26690;SDS011;14307;51.718;8.938;2023-04-01T00:24:08;6.20;;;5.60;;
26690;SDS011;14307;51.718;8.938;2023-04-01T00:26:35;6.38;;;5.90;;
26690;SDS011;14307;51.718;8.938;2023-04-01T00:29:02;6.25;;;5.90;;
26690;SDS011;14307;51.718;8.938;2023-04-01T00:31:29;6.78;;;5.40;;
26690;SDS011;14307;51.718;8.938;2023-04-01T00:33:56;6.30;;;6.00;;
26690;SDS011;14307;51.718;8.938;2023-04-01T00:36:23;6.20;;;5.80;;
26690;SDS011;14307;51.718;8.938;2023-04-01T00:38:50;5.85;;;5.50;;
26690;SDS011;14307;51.718;8.938;2023-04-01T00:41:18;6.10;;;5.70;;
26690;SDS011;14307;51.718;8.938;2023-04-01T00:43:47;5.88;;;5.60;;
26690;SDS011;14307;51.718;8.938;2023-04-01T00:46:14;6.80;;;6.30;;
26690;SDS011;14307;51.718;8.938;2023-04-01T00:48:42;6.32;;;6.03;;
26690;SDS011;14307;51.718;8.938;2023-04-01T00:51:14;7.38;;;7.07;;
26690;SDS011;14307;51.718;8.938;2023-04-01T00:53:45;6.45;;;6.07;;
26690;SDS011;14307;51.718;8.938;2023-04-01T00:56:18;8.32;;;7.70;;
26690;SDS011;14307;51.718;8.938;2023-04-01T00:58:50;6.90;;;6.50;;
26690;SDS011;14307;51.718;8.938;2023-04-01T01:01:22;6.85;;;6.32;;
26690;SDS011;14307;51.718;8.938;2023-04-01T01:03:51;6.32;;;6.03;;
26690;SDS011;14307;51.718;8.938;2023-04-01T01:14:25;7.93;;;7.32;;
26690;SDS011;14307;51.718;8.938;2023-04-01T01:16:58;7.18;;;6.88;;
26690;SDS011;14307;51.718;8.938;2023-04-01T01:25:09;8.13;;;7.60;;
26690;SDS011;14307;51.718;8.938;2023-04-01T01:27:42;9.18;;;8.68;;
26690;SDS011;14307;51.718;8.938;2023-04-01T01:30:22;7.60;;;7.20;;
26690;SDS011;14307;51.718;8.938;2023-04-01T01:36:12;8.45;;;8.13;;
26690;SDS011;14307;51.718;8.938;2023-04-01T01:38:41;8.40;;;7.97;;
26690;SDS011;14307;51.718;8.938;2023-04-01T01:41:07;9.57;;;9.18;;
26690;SDS011;14307;51.718;8.938;2023-04-01T01:43:38;8.95;;;8.55;;
26690;SDS011;14307;51.718;8.938;2023-04-01T01:46:13;8.50;;;8.20;;
26690;SDS011;14307;51.718;8.938;2023-04-01T01:48:43;8.02;;;7.63;;
26690;SDS011;14307;51.718;8.938;2023-04-01T01:51:11;7.45;;;7.10;;
26690;SDS011;14307;51.718;8.938;2023-04-01T01:53:38;6.15;;;5.85;;
26690;SDS011;14307;51.718;8.938;2023-04-01T01:56:06;5.20;;;4.90;;
26690;SDS011;14307;51.718;8.938;2023-04-01T01:58:39;4.65;;;4.40;;
26690;SDS011;14307;51.718;8.938;2023-04-01T02:01:20;4.30;;;4.10;;
26690;SDS011;14307;51.718;8.938;2023-04-01T02:03:52;5.55;;;5.03;;
26690;SDS011;14307;51.718;8.938;2023-04-01T02:06:21;6.93;;;6.35;;
26690;SDS011;14307;51.718;8.938;2023-04-01T02:08:56;5.45;;;5.03;;
26690;SDS011;14307;51.718;8.938;2023-04-01T02:11:29;5.60;;;5.30;;
26690;SDS011;14307;51.718;8.938;2023-04-01T02:14:05;6.50;;;6.20;;
26690;SDS011;14307;51.718;8.938;2023-04-01T02:16:41;4.85;;;4.55;;
26690;SDS011;14307;51.718;8.938;2023-04-01T02:19:25;4.30;;;4.00;;
26690;SDS011;14307;51.718;8.938;2023-04-01T02:22:00;5.25;;;4.18;;
26690;SDS011;14307;51.718;8.938;2023-04-01T02:24:30;4.72;;;4.50;;
26690;SDS011;14307;51.718;8.938;2023-04-01T02:26:59;3.58;;;3.42;;
26690;SDS011;14307;51.718;8.938;2023-04-01T02:29:27;3.20;;;3.10;;
26690;SDS011;14307;51.718;8.938;2023-04-01T02:31:54;3.63;;;3.53;;
26690;SDS011;14307;51.718;8.938;2023-04-01T02:34:22;3.70;;;3.40;;
26690;SDS011;14307;51.718;8.938;2023-04-01T02:36:50;3.38;;;3.25;;
26690;SDS011;14307;51.718;8.938;2023-04-01T02:39:17;3.88;;;3.78;;
26690;SDS011;14307;51.718;8.938;2023-04-01T02:41:45;2.80;;;2.60;;
26690;SDS011;14307;51.718;8.938;2023-04-01T02:44:13;2.83;;;2.60;;
26690;SDS011;14307;51.718;8.938;2023-04-01T02:46:41;2.80;;;2.70;;
26690;SDS011;14307;51.718;8.938;2023-04-01T02:49:08;2.97;;;2.88;;
26690;SDS011;14307;51.718;8.938;2023-04-01T02:51:35;3.42;;;3.00;;
26690;SDS011;14307;51.718;8.938;2023-04-01T02:54:02;2.60;;;2.50;;
26690;SDS011;14307;51.718;8.938;2023-04-01T02:56:29;3.15;;;2.90;;
26690;SDS011;14307;51.718;8.938;2023-04-01T02:58:56;3.33;;;3.13;;
26690;SDS011;14307;51.718;8.938;2023-04-01T03:01:23;2.20;;;2.10;;
26690;SDS011;14307;51.718;8.938;2023-04-01T03:03:49;2.72;;;2.63;;
26690;SDS011;14307;51.718;8.938;2023-04-01T03:06:16;2.83;;;2.63;;
26690;SDS011;14307;51.718;8.938;2023-04-01T03:08:44;2.55;;;2.45;;
26690;SDS011;14307;51.718;8.938;2023-04-01T03:11:11;2.60;;;2.50;;
26690;SDS011;14307;51.718;8.938;2023-04-01T03:13:38;3.45;;;2.60;;
26690;SDS011;14307;51.718;8.938;2023-04-01T03:16:05;2.75;;;2.55;;
26690;SDS011;14307;51.718;8.938;2023-04-01T03:18:32;3.58;;;2.50;;
26690;SDS011;14307;51.718;8.938;2023-04-01T03:21:20;3.53;;;3.00;;
26690;SDS011;14307;51.718;8.938;2023-04-01T03:23:46;3.17;;;3.00;;
26690;SDS011;14307;51.718;8.938;2023-04-01T03:26:14;2.42;;;2.33;;
26690;SDS011;14307;51.718;8.938;2023-04-01T03:28:42;2.30;;;2.20;;
26690;SDS011;14307;51.718;8.938;2023-04-01T03:31:09;2.33;;;2.10;;
26690;SDS011;14307;51.718;8.938;2023-04-01T03:33:42;3.33;;;2.20;;
26690;SDS011;14307;51.718;8.938;2023-04-01T03:36:09;2.58;;;2.47;;
26690;SDS011;14307;51.718;8.938;2023-04-01T03:38:39;2.17;;;1.95;;
26690;SDS011;14307;51.718;8.938;2023-04-01T03:41:07;2.30;;;2.20;;
26690;SDS011;14307;51.718;8.938;2023-04-01T03:43:37;3.00;;;2.80;;
26690;SDS011;14307;51.718;8.938;2023-04-01T03:46:04;2.47;;;2.28;;
26690;SDS011;14307;51.718;8.938;2023-04-01T03:48:31;2.47;;;2.38;;
26690;SDS011;14307;51.718;8.938;2023-04-01T03:50:58;2.58;;;2.47;;
26690;SDS011;14307;51.718;8.938;2023-04-01T03:53:25;2.38;;;2.25;;
26690;SDS011;14307;51.718;8.938;2023-04-01T03:55:56;2.50;;;2.30;;
26690;SDS011;14307;51.718;8.938;2023-04-01T03:58:23;2.90;;;2.72;;
26690;SDS011;14307;51.718;8.938;2023-04-01T04:00:51;4.75;;;2.38;;
26690;SDS011;14307;51.718;8.938;2023-04-01T04:03:17;2.70;;;2.60;;
26690;SDS011;14307;51.718;8.938;2023-04-01T04:05:48;2.70;;;2.47;;
26690;SDS011;14307;51.718;8.938;2023-04-01T04:08:16;2.50;;;2.40;;
26690;SDS011;14307;51.718;8.938;2023-04-01T04:10:43;3.05;;;2.85;;
26690;SDS011;14307;51.718;8.938;2023-04-01T04:13:10;4.18;;;3.53;;
26690;SDS011;14307;51.718;8.938;2023-04-01T04:15:43;3.58;;;3.28;;
26690;SDS011;14307;51.718;8.938;2023-04-01T04:18:10;2.50;;;2.30;;
26690;SDS011;14307;51.718;8.938;2023-04-01T04:20:43;2.60;;;2.40;;
26690;SDS011;14307;51.718;8.938;2023-04-01T04:23:13;2.03;;;1.92;;
26690;SDS011;14307;51.718;8.938;2023-04-01T04:25:40;1.63;;;1.52;;
26690;SDS011;14307;51.718;8.938;2023-04-01T04:28:07;1.83;;;1.73;;
26690;SDS011;14307;51.718;8.938;2023-04-01T04:30:34;1.23;;;1.23;;
26690;SDS011;14307;51.718;8.938;2023-04-01T04:33:00;1.60;;;1.50;;
26690;SDS011;14307;51.718;8.938;2023-04-01T04:35:27;1.83;;;1.50;;
26690;SDS011;14307;51.718;8.938;2023-04-01T04:37:54;1.30;;;1.30;;
26690;SDS011;14307;51.718;8.938;2023-04-01T04:40:21;2.45;;;1.48;;
26690;SDS011;14307;51.718;8.938;2023-04-01T04:42:48;1.92;;;1.40;;
26690;SDS011;14307;51.718;8.938;2023-04-01T04:45:15;3.17;;;1.50;;
26690;SDS011;14307;51.718;8.938;2023-04-01T04:47:51;1.95;;;1.10;;
26690;SDS011;14307;51.718;8.938;2023-04-01T04:50:17;1.60;;;1.23;;
26690;SDS011;14307;51.718;8.938;2023-04-01T04:52:44;1.00;;;1.00;;
26690;SDS011;14307;51.718;8.938;2023-04-01T04:55:11;1.10;;;0.93;;
26690;SDS011;14307;51.718;8.938;2023-04-01T04:57:40;1.27;;;1.13;;
26690;SDS011;14307;51.718;8.938;2023-04-01T05:00:07;2.00;;;1.30;;
26690;SDS011;14307;51.718;8.938;2023-04-01T05:02:57;1.17;;;1.00;;
26690;SDS011;14307;51.718;8.938;2023-04-01T05:05:24;1.10;;;1.00;;
26690;SDS011;14307;51.718;8.938;2023-04-01T05:07:51;1.05;;;0.95;;
26690;SDS011;14307;51.718;8.938;2023-04-01T05:10:18;0.90;;;0.88;;
26690;SDS011;14307;51.718;8.938;2023-04-01T05:12:46;2.50;;;0.80;;
26690;SDS011;14307;51.718;8.938;2023-04-01T05:15:17;2.33;;;0.80;;
26690;SDS011;14307;51.718;8.938;2023-04-01T05:17:43;1.90;;;0.63;;
26690;SDS011;14307;51.718;8.938;2023-04-01T05:20:11;1.20;;;1.08;;
26690;SDS011;14307;51.718;8.938;2023-04-01T05:22:39;2.78;;;1.40;;
26690;SDS011;14307;51.718;8.938;2023-04-01T05:25:06;1.92;;;1.02;;
26690;SDS011;14307;51.718;8.938;2023-04-01T05:27:33;1.17;;;1.08;;
26690;SDS011;14307;51.718;8.938;2023-04-01T05:30:00;1.30;;;1.20;;
26690;SDS011;14307;51.718;8.938;2023-04-01T05:32:56;1.48;;;1.30;;
26690;SDS011;14307;51.718;8.938;2023-04-01T05:35:23;1.05;;;0.90;;
26690;SDS011;14307;51.718;8.938;2023-04-01T05:37:50;2.55;;;1.20;;
26690;SDS011;14307;51.718;8.938;2023-04-01T05:40:17;1.13;;;1.08;;
26690;SDS011;14307;51.718;8.938;2023-04-01T05:42:44;1.13;;;1.02;;
26690;SDS011;14307;51.718;8.938;2023-04-01T05:45:10;1.02;;;1.02;;
26690;SDS011;14307;51.718;8.938;2023-04-01T05:48:03;1.50;;;0.90;;
26690;SDS011;14307;51.718;8.938;2023-04-01T05:50:36;2.78;;;1.83;;
26690;SDS011;14307;51.718;8.938;2023-04-01T05:53:03;1.70;;;1.60;;
26690;SDS011;14307;51.718;8.938;2023-04-01T05:55:30;3.45;;;1.38;;
26690;SDS011;14307;51.718;8.938;2023-04-01T05:57:57;2.15;;;1.30;;
26690;SDS011;14307;51.718;8.938;2023-04-01T06:00:26;1.63;;;1.20;;
26690;SDS011;14307;51.718;8.938;2023-04-01T06:02:52;1.27;;;1.17;;
26690;SDS011;14307;51.718;8.938;2023-04-01T06:05:20;2.00;;;1.00;;
26690;SDS011;14307;51.718;8.938;2023-04-01T06:07:50;1.15;;;1.05;;
26690;SDS011;14307;51.718;8.938;2023-04-01T06:10:25;0.95;;;0.95;;
26690;SDS011;14307;51.718;8.938;2023-04-01T06:22:17;1.63;;;1.42;;
26690;SDS011;14307;51.718;8.938;2023-04-01T06:30:53;1.40;;;1.30;;
26690;SDS011;14307;51.718;8.938;2023-04-01T06:41:57;1.60;;;1.23;;
26690;SDS011;14307;51.718;8.938;2023-04-01T06:47:52;4.60;;;1.98;;
26690;SDS011;14307;51.718;8.938;2023-04-01T06:54:01;4.38;;;1.17;;
26690;SDS011;14307;51.718;8.938;2023-04-01T06:56:53;3.17;;;1.90;;
26690;SDS011;14307;51.718;8.938;2023-04-01T07:01:55;3.65;;;1.20;;
26690;SDS011;14307;51.718;8.938;2023-04-01T07:04:35;1.15;;;1.02;;
26690;SDS011;14307;51.718;8.938;2023-04-01T07:07:19;6.38;;;1.60;;
26690;SDS011;14307;51.718;8.938;2023-04-01T07:10:05;1.95;;;1.45;;
26690;SDS011;14307;51.718;8.938;2023-04-01T07:13:09;1.75;;;1.45;;
26690;SDS011;14307;51.718;8.938;2023-04-01T07:18:52;2.22;;;1.60;;
26690;SDS011;14307;51.718;8.938;2023-04-01T07:21:36;2.30;;;1.10;;
26690;SDS011;14307;51.718;8.938;2023-04-01T07:24:42;1.85;;;1.73;;
26690;SDS011;14307;51.718;8.938;2023-04-01T07:27:11;3.20;;;1.25;;
26690;SDS011;14307;51.718;8.938;2023-04-01T07:29:40;4.45;;;2.15;;
26690;SDS011;14307;51.718;8.938;2023-04-01T07:35:03;3.30;;;1.70;;
26690;SDS011;14307;51.718;8.938;2023-04-01T07:37:47;1.60;;;1.05;;
26690;SDS011;14307;51.718;8.938;2023-04-01T07:40:36;3.50;;;1.17;;
26690;SDS011;14307;51.718;8.938;2023-04-01T07:44:10;1.92;;;1.40;;
26690;SDS011;14307;51.718;8.938;2023-04-01T07:46:40;3.35;;;1.25;;
26690;SDS011;14307;51.718;8.938;2023-04-01T07:49:27;1.80;;;1.30;;
26690;SDS011;14307;51.718;8.938;2023-04-01T07:52:06;5.10;;;1.30;;
26690;SDS011;14307;51.718;8.938;2023-04-01T08:00:36;4.63;;;1.38;;
26690;SDS011;14307;51.718;8.938;2023-04-01T08:09:06;3.80;;;1.25;;
26690;SDS011;14307;51.718;8.938;2023-04-01T08:12:46;4.18;;;1.10;;
26690;SDS011;14307;51.718;8.938;2023-04-01T08:22:13;1.67;;;1.50;;
26690;SDS011;14307;51.718;8.938;2023-04-01T08:24:46;3.17;;;1.35;;
26690;SDS011;14307;51.718;8.938;2023-04-01T08:27:31;4.55;;;1.50;;
26690;SDS011;14307;51.718;8.938;2023-04-01T08:35:29;2.47;;;1.40;;
26690;SDS011;14307;51.718;8.938;2023-04-01T08:38:11;3.10;;;1.40;;
26690;SDS011;14307;51.718;8.938;2023-04-01T08:40:50;3.85;;;1.70;;
26690;SDS011;14307;51.718;8.938;2023-04-01T08:43:28;2.72;;;1.92;;
26690;SDS011;14307;51.718;8.938;2023-04-01T08:57:21;3.25;;;1.40;;
26690;SDS011;14307;51.718;8.938;2023-04-01T09:06:12;3.35;;;2.00;;
26690;SDS011;14307;51.718;8.938;2023-04-01T09:08:57;2.88;;;2.00;;
26690;SDS011;14307;51.718;8.938;2023-04-01T09:11:28;3.53;;;2.13;;
26690;SDS011;14307;51.718;8.938;2023-04-01T09:28:50;4.30;;;2.55;;
26690;SDS011;14307;51.718;8.938;2023-04-01T09:40:33;2.95;;;1.80;;
26690;SDS011;14307;51.718;8.938;2023-04-01T09:43:39;2.85;;;2.53;;
26690;SDS011;14307;51.718;8.938;2023-04-01T09:46:19;2.55;;;2.35;;
26690;SDS011;14307;51.718;8.938;2023-04-01T10:01:10;4.10;;;3.80;;
26690;SDS011;14307;51.718;8.938;2023-04-01T10:09:58;3.53;;;3.22;;
26690;SDS011;14307;51.718;8.938;2023-04-01T10:18:22;2.50;;;2.30;;
26690;SDS011;14307;51.718;8.938;2023-04-01T10:23:37;2.47;;;2.28;;
26690;SDS011;14307;51.718;8.938;2023-04-01T10:29:13;4.45;;;2.95;;
26690;SDS011;14307;51.718;8.938;2023-04-01T10:31:56;3.25;;;2.55;;
26690;SDS011;14307;51.718;8.938;2023-04-01T10:34:40;4.32;;;4.03;;
26690;SDS011;14307;51.718;8.938;2023-04-01T10:51:37;3.58;;;3.28;;
26690;SDS011;14307;51.718;8.938;2023-04-01T10:54:46;4.55;;;3.20;;
26690;SDS011;14307;51.718;8.938;2023-04-01T11:33:01;4.15;;;3.83;;
26690;SDS011;14307;51.718;8.938;2023-04-01T11:45:03;3.45;;;3.20;;
26690;SDS011;14307;51.718;8.938;2023-04-01T11:56:24;3.40;;;3.10;;
26690;SDS011;14307;51.718;8.938;2023-04-01T11:59:17;4.45;;;4.25;;
26690;SDS011;14307;51.718;8.938;2023-04-01T12:07:53;3.80;;;3.70;;
26690;SDS011;14307;51.718;8.938;2023-04-01T12:13:26;5.70;;;3.63;;
26690;SDS011;14307;51.718;8.938;2023-04-01T12:18:43;7.65;;;5.75;;
26690;SDS011;14307;51.718;8.938;2023-04-01T12:21:35;8.27;;;5.78;;
26690;SDS011;14307;51.718;8.938;2023-04-01T12:26:44;3.35;;;1.95;;
26690;SDS011;14307;51.718;8.938;2023-04-01T12:32:35;4.13;;;2.83;;
26690;SDS011;14307;51.718;8.938;2023-04-01T12:43:56;3.40;;;3.10;;
26690;SDS011;14307;51.718;8.938;2023-04-01T12:47:02;3.20;;;2.95;;
26690;SDS011;14307;51.718;8.938;2023-04-01T12:53:04;2.00;;;1.80;;
26690;SDS011;14307;51.718;8.938;2023-04-01T12:55:38;2.30;;;2.05;;
26690;SDS011;14307;51.718;8.938;2023-04-01T13:01:16;2.85;;;2.63;;
26690;SDS011;14307;51.718;8.938;2023-04-01T13:09:59;4.68;;;4.15;;
26690;SDS011;14307;51.718;8.938;2023-04-01T13:20:17;3.40;;;3.10;;
26690;SDS011;14307;51.718;8.938;2023-04-01T13:23:01;5.13;;;4.53;;
26690;SDS011;14307;51.718;8.938;2023-04-01T13:28:47;2.88;;;2.65;;
26690;SDS011;14307;51.718;8.938;2023-04-01T13:44:56;8.50;;;6.93;;
26690;SDS011;14307;51.718;8.938;2023-04-01T13:56:57;11.98;;;9.65;;
26690;SDS011;14307;51.718;8.938;2023-04-01T14:08:42;4.00;;;3.70;;
26690;SDS011;14307;51.718;8.938;2023-04-01T14:11:34;5.07;;;4.68;;
26690;SDS011;14307;51.718;8.938;2023-04-01T14:19:58;7.35;;;6.68;;
26690;SDS011;14307;51.718;8.938;2023-04-01T14:32:09;6.15;;;5.63;;
26690;SDS011;14307;51.718;8.938;2023-04-01T14:40:05;7.53;;;6.82;;
26690;SDS011;14307;51.718;8.938;2023-04-01T14:52:10;6.07;;;5.47;;
26690;SDS011;14307;51.718;8.938;2023-04-01T14:54:54;7.47;;;6.78;;
26690;SDS011;14307;51.718;8.938;2023-04-01T14:57:23;8.18;;;7.45;;
26690;SDS011;14307;51.718;8.938;2023-04-01T14:59:53;8.77;;;7.88;;
26690;SDS011;14307;51.718;8.938;2023-04-01T15:08:05;7.78;;;7.07;;
26690;SDS011;14307;51.718;8.938;2023-04-01T15:16:25;6.93;;;6.22;;
26690;SDS011;14307;51.718;8.938;2023-04-01T15:19:31;10.13;;;8.15;;
26690;SDS011;14307;51.718;8.938;2023-04-01T15:31:11;13.02;;;9.02;;
26690;SDS011;14307;51.718;8.938;2023-04-01T15:34:02;18.38;;;13.60;;
26690;SDS011;14307;51.718;8.938;2023-04-01T15:43:48;7.07;;;5.32;;
26690;SDS011;14307;51.718;8.938;2023-04-01T15:57:28;7.68;;;7.00;;
26690;SDS011;14307;51.718;8.938;2023-04-01T16:00:10;25.40;;;23.08;;
26690;SDS011;14307;51.718;8.938;2023-04-01T16:05:53;5.15;;;3.65;;
26690;SDS011;14307;51.718;8.938;2023-04-01T16:11:33;12.20;;;7.72;;
26690;SDS011;14307;51.718;8.938;2023-04-01T16:19:48;10.32;;;8.82;;
26690;SDS011;14307;51.718;8.938;2023-04-01T16:22:23;16.75;;;14.55;;
26690;SDS011;14307;51.718;8.938;2023-04-01T16:27:49;2.88;;;2.65;;
26690;SDS011;14307;51.718;8.938;2023-04-01T16:30:35;19.77;;;16.73;;
26690;SDS011;14307;51.718;8.938;2023-04-01T16:41:17;9.45;;;8.15;;
26690;SDS011;14307;51.718;8.938;2023-04-01T16:43:50;23.33;;;20.83;;
26690;SDS011;14307;51.718;8.938;2023-04-01T16:56:49;31.92;;;19.38;;
26690;SDS011;14307;51.718;8.938;2023-04-01T17:01:54;17.38;;;13.70;;
26690;SDS011;14307;51.718;8.938;2023-04-01T17:19:00;20.55;;;15.20;;
26690;SDS011;14307;51.718;8.938;2023-04-01T17:24:58;13.68;;;10.18;;
26690;SDS011;14307;51.718;8.938;2023-04-01T17:27:42;8.60;;;7.15;;
26690;SDS011;14307;51.718;8.938;2023-04-01T17:43:53;6.93;;;5.88;;
26690;SDS011;14307;51.718;8.938;2023-04-01T17:52:47;12.10;;;9.48;;
26690;SDS011;14307;51.718;8.938;2023-04-01T17:55:32;16.23;;;12.90;;
26690;SDS011;14307;51.718;8.938;2023-04-01T17:58:17;14.82;;;10.98;;
26690;SDS011;14307;51.718;8.938;2023-04-01T18:06:20;15.13;;;8.30;;
26690;SDS011;14307;51.718;8.938;2023-04-01T18:14:44;10.18;;;8.13;;
26690;SDS011;14307;51.718;8.938;2023-04-01T18:20:43;7.10;;;4.65;;
26690;SDS011;14307;51.718;8.938;2023-04-01T18:23:54;4.13;;;3.30;;
26690;SDS011;14307;51.718;8.938;2023-04-01T18:26:29;4.07;;;3.65;;
26690;SDS011;14307;51.718;8.938;2023-04-01T18:29:04;4.47;;;3.42;;
26690;SDS011;14307;51.718;8.938;2023-04-01T18:32:07;4.80;;;3.97;;
26690;SDS011;14307;51.718;8.938;2023-04-01T18:34:43;5.03;;;4.15;;
26690;SDS011;14307;51.718;8.938;2023-04-01T18:49:42;10.35;;;6.65;;
26690;SDS011;14307;51.718;8.938;2023-04-01T18:52:39;9.88;;;6.50;;
26690;SDS011;14307;51.718;8.938;2023-04-01T18:57:53;7.68;;;4.90;;
26690;SDS011;14307;51.718;8.938;2023-04-01T19:00:26;4.75;;;3.67;;
26690;SDS011;14307;51.718;8.938;2023-04-01T19:03:07;4.32;;;3.45;;
26690;SDS011;14307;51.718;8.938;2023-04-01T19:05:47;5.82;;;3.60;;
26690;SDS011;14307;51.718;8.938;2023-04-01T19:08:33;2.92;;;2.63;;
26690;SDS011;14307;51.718;8.938;2023-04-01T19:11:21;2.58;;;2.35;;
26690;SDS011;14307;51.718;8.938;2023-04-01T19:14:11;3.85;;;2.33;;
26690;SDS011;14307;51.718;8.938;2023-04-01T19:16:46;2.83;;;2.05;;
26690;SDS011;14307;51.718;8.938;2023-04-01T19:19:37;3.10;;;2.50;;
26690;SDS011;14307;51.718;8.938;2023-04-01T19:28:02;4.85;;;3.83;;
26690;SDS011;14307;51.718;8.938;2023-04-01T19:39:39;7.53;;;5.63;;
26690;SDS011;14307;51.718;8.938;2023-04-01T19:42:32;8.05;;;6.63;;
26690;SDS011;14307;51.718;8.938;2023-04-01T19:56:20;7.90;;;6.68;;
26690;SDS011;14307;51.718;8.938;2023-04-01T19:58:56;8.10;;;6.68;;
26690;SDS011;14307;51.718;8.938;2023-04-01T20:01:34;8.45;;;6.68;;
26690;SDS011;14307;51.718;8.938;2023-04-01T20:04:12;8.45;;;6.75;;
26690;SDS011;14307;51.718;8.938;2023-04-01T20:06:57;10.23;;;8.32;;
26690;SDS011;14307;51.718;8.938;2023-04-01T20:18:13;15.60;;;11.85;;
26690;SDS011;14307;51.718;8.938;2023-04-01T20:20:57;16.88;;;12.43;;
26690;SDS011;14307;51.718;8.938;2023-04-01T20:23:39;17.08;;;12.85;;
26690;SDS011;14307;51.718;8.938;2023-04-01T20:26:12;13.77;;;10.30;;
26690;SDS011;14307;51.718;8.938;2023-04-01T20:28:48;16.00;;;12.30;;
26690;SDS011;14307;51.718;8.938;2023-04-01T20:31:37;13.75;;;10.63;;
26690;SDS011;14307;51.718;8.938;2023-04-01T20:37:14;15.15;;;11.65;;
26690;SDS011;14307;51.718;8.938;2023-04-01T20:40:17;12.63;;;9.52;;
26690;SDS011;14307;51.718;8.938;2023-04-01T20:51:31;11.02;;;9.32;;
26690;SDS011;14307;51.718;8.938;2023-04-01T20:54:20;11.57;;;9.57;;
26690;SDS011;14307;51.718;8.938;2023-04-01T20:57:05;14.43;;;10.63;;
26690;SDS011;14307;51.718;8.938;2023-04-01T21:08:23;7.47;;;5.78;;
26690;SDS011;14307;51.718;8.938;2023-04-01T21:11:22;8.40;;;7.05;;
26690;SDS011;14307;51.718;8.938;2023-04-01T21:19:24;7.47;;;6.32;;
26690;SDS011;14307;51.718;8.938;2023-04-01T21:28:38;7.93;;;7.10;;
26690;SDS011;14307;51.718;8.938;2023-04-01T21:34:07;9.15;;;7.88;;
26690;SDS011;14307;51.718;8.938;2023-04-01T21:43:00;7.30;;;6.57;;
26690;SDS011;14307;51.718;8.938;2023-04-01T21:46:16;6.80;;;6.10;;
26690;SDS011;14307;51.718;8.938;2023-04-01T22:00:13;6.18;;;5.20;;
26690;SDS011;14307;51.718;8.938;2023-04-01T22:13:14;5.60;;;5.05;;
26690;SDS011;14307;51.718;8.938;2023-04-01T22:18:57;6.90;;;5.05;;
26690;SDS011;14307;51.718;8.938;2023-04-01T22:21:35;6.40;;;5.22;;
26690;SDS011;14307;51.718;8.938;2023-04-01T22:32:45;6.78;;;6.13;;
26690;SDS011;14307;51.718;8.938;2023-04-01T22:35:23;7.75;;;6.30;;
26690;SDS011;14307;51.718;8.938;2023-04-01T22:46:09;7.10;;;5.50;;
26690;SDS011;14307;51.718;8.938;2023-04-01T22:48:44;6.32;;;4.72;;
26690;SDS011;14307;51.718;8.938;2023-04-01T22:51:18;7.07;;;5.55;;
26690;SDS011;14307;51.718;8.938;2023-04-01T22:53:53;9.52;;;7.57;;
26690;SDS011;14307;51.718;8.938;2023-04-01T22:56:38;9.95;;;7.47;;
26690;SDS011;14307;51.718;8.938;2023-04-01T23:02:04;11.80;;;8.43;;
26690;SDS011;14307;51.718;8.938;2023-04-01T23:04:40;17.52;;;12.25;;
26690;SDS011;14307;51.718;8.938;2023-04-01T23:10:16;14.57;;;9.10;;
26690;SDS011;14307;51.718;8.938;2023-04-01T23:12:51;21.08;;;13.90;;
26690;SDS011;14307;51.718;8.938;2023-04-01T23:15:19;20.73;;;13.30;;
26690;SDS011;14307;51.718;8.938;2023-04-01T23:17:52;16.40;;;11.15;;
26690;SDS011;14307;51.718;8.938;2023-04-01T23:26:13;25.88;;;16.30;;
26690;SDS011;14307;51.718;8.938;2023-04-01T23:28:56;17.58;;;10.40;;
26690;SDS011;14307;51.718;8.938;2023-04-01T23:34:02;25.15;;;16.35;;
26690;SDS011;14307;51.718;8.938;2023-04-01T23:36:42;22.80;;;13.50;;
26690;SDS011;14307;51.718;8.938;2023-04-01T23:45:03;24.88;;;15.57;;
26690;SDS011;14307;51.718;8.938;2023-04-01T23:47:38;23.17;;;15.18;;
26690;SDS011;14307;51.718;8.938;2023-04-01T23:50:10;20.40;;;12.15;;
26690;SDS011;14307;51.718;8.938;2023-04-01T23:52:46;19.67;;;12.57;;
26690;SDS011;14307;51.718;8.938;2023-04-01T23:55:33;25.75;;;16.52;;
